This is the latest recevied weather packets stored in our database for station/object EA2DXT-10. If no packets are shown the sender has not sent any weather packets the latest 10 day(s).
| Time | Temp. | Humidity | Pressure | Rain* | Wind** | Luminosity | Snow |
|---|---|---|---|---|---|---|---|
| 1777252119 | 14.44° C | 74% | 953.2 hPa | - | - | - | - |
| 1777251219 | 15° C | 74% | 953.2 hPa | - | - | - | - |
| 1777250319 | 15° C | 74% | 953.5 hPa | - | - | - | - |
| 1777249419 | 15° C | 74% | 953.6 hPa | - | - | - | - |
| 1777248519 | 15° C | 74% | 953.6 hPa | - | - | - | - |
| 1777247618 | 15° C | 74% | 953.7 hPa | - | - | - | - |
| 1777246718 | 15° C | 74% | 953.8 hPa | - | - | - | - |
| 1777245818 | 15° C | 74% | 953.7 hPa | - | - | - | - |
| 1777244918 | 15° C | 72% | 953.6 hPa | - | - | - | - |
| 1777244018 | 15.56° C | 70% | 953.7 hPa | - | - | - | - |
| 1777243118 | 17.22° C | 64% | 953.7 hPa | - | - | - | - |
| 1777242217 | 23.33° C | 45% | 953.6 hPa | - | - | - | - |
| 1777241317 | 23.89° C | 45% | 953.5 hPa | - | - | - | - |
| 1777241118 | 23.89° C | 46% | 953.5 hPa | - | - | - | - |
| 1777240182 | 24.44° C | 44% | 953.5 hPa | - | - | - | - |
| 1777239254 | 24.44° C | 44% | 953.7 hPa | - | - | - | - |
| 1777238951 | 24.44° C | 45% | 953.7 hPa | - | - | - | - |
| 1777236380 | 24.44° C | 45% | 953.5 hPa | - | - | - | - |
| 1777233814 | 23.33° C | 47% | 953.4 hPa | - | - | - | - |
| 1777232299 | 24.44° C | 45% | 952.9 hPa | - | - | - | - |
| 1777213342 | 25.56° C | 48% | 951.7 hPa | - | - | - | - |
| 1777213096 | 25° C | 48% | 951.8 hPa | - | - | - | - |
| 1777213028 | 24.44° C | 49% | 951.8 hPa | - | - | - | - |
| 1777211301 | 28.89° C | 40% | 952 hPa | - | - | - | - |
| 1777208341 | 22.78° C | 69% | 632.5 hPa | - | - | - | - |
* Rain since midnight (hover to see other rain measurements)
** Current wind speed in m/s (hover to see current wind gust speed)